Terminal Aerodrome Forecast
Issued by NWS

Home | Current Version | Previous Version | Text Only | Print | Product List | Glossary On
Versions: 1 2 3 4 5 6 7 8 9 10 11 12 13 14 15 16 17 18 19 20 21 22 23 24
000
FTUS43 KMKX 071843 RRA
TAFENW
TAF
KENW 071843Z 0719/0818 26015KT P6SM BKN150
     FM080400 27013G21KT P6SM BKN030
     FM080600 27012G20KT P6SM BKN040
     FM081300 28013G23KT P6SM BKN025=

USA.gov is the U.S. government's official web portal to all federal, state and local government web resources and services.